Costa Luminosa — ICGU — position and weather

sailwx.info

Track history (hours):
 
Tides and Currents Weather Stations Pressure Air Temp Water Temp Dewpoint Dewpoint Depression Visibility Wind Speed Wind Dir Waves Ship Positions

Costa Luminosa

Last reported at 2020-Feb-25 09:03 UTC. Time now 2020-Feb-26 18:25 UTC.
Position N 26°18' W 079°23'.

Length 294 m; draft 8.1 m.

Type: Passenger vessel. MMSI: 247257900.

Date/timePositionNaut miles runAvg speedWind from/ knotsBaromVisibWave heightAir tempDewpointWater temp
2020-Feb-25 09:03N 26°18' W 079°23'910.0
2020-Feb-25 08:08N 26°26' W 079°28'12 9.7
2020-Feb-25 06:56N 26°23' W 079°41'29 9.9
2020-Feb-25 03:58N 26°05' W 080°07'0 0.0
2020-Feb-25 03:28N 26°05' W 080°07'0 0.0
2020-Feb-25 02:58N 26°05' W 080°07'0 0.0
2020-Feb-25 00:58N 26°05' W 080°07'0 0.0
2020-Feb-24 20:55N 26°05' W 080°07'0 0.0
2020-Feb-24 19:55N 26°05' W 080°07'0 0.0
2020-Feb-24 18:58N 26°05' W 080°07'0 0.0
2020-Feb-24 15:58N 26°05' W 080°07'0 0.0
2020-Feb-24 14:58N 26°05' W 080°07'0 0.0
2020-Feb-24 14:28N 26°05' W 080°07'0 0.0
2020-Feb-24 11:58N 26°05' W 080°07'0 0.0
2020-Feb-24 11:28N 26°05' W 080°07'14 4.9
2020-Feb-24 08:30N 25°58' W 079°53'51115.7
2020-Feb-22 23:57N 20°29' W 086°59'0 0.0
2020-Feb-22 23:27N 20°29' W 086°59'0 0.0
2020-Feb-22 22:24N 20°29' W 086°59'0 0.0
2020-Feb-22 21:30N 20°29' W 086°59'0 0.0
2020-Feb-22 19:24N 20°29' W 086°59'0 0.0
2020-Feb-22 17:30N 20°29' W 086°59'0 0.0
2020-Feb-22 17:00N 20°29' W 086°59'0 0.0
2020-Feb-22 15:00N 20°29' W 086°59'0 0.0
2020-Feb-22 14:27N 20°29' W 086°59'0 0.0
2020-Feb-22 13:57N 20°29' W 086°59'0 0.1
2020-Feb-22 12:01N 20°29' W 086°59'510.2
2020-Feb-22 11:31N 20°26' W 087°03'22318.4
2020-Feb-21 23:23N 16°43' W 086°43'27 9.1
2020-Feb-21 20:28N 16°20' W 086°30'0 0.0
2020-Feb-21 19:28N 16°20' W 086°30'0 0.0
2020-Feb-21 16:28N 16°20' W 086°30'0 0.0
2020-Feb-21 15:58N 16°20' W 086°30'0 0.0
2020-Feb-21 15:28N 16°20' W 086°30'46 5.4
2020-Feb-21 06:52N 16°47' W 087°08'  
2020-Feb-18 23:14N 19°15' W 081°31'313.2
2020-Feb-18 23:00N 19°16' W 081°28'5 1.8
2020-Feb-18 20:30N 19°18' W 081°23'0 0.0
2020-Feb-18 18:30N 19°18' W 081°23'0 0.0
2020-Feb-18 17:00N 19°18' W 081°24'0 0.1
2020-Feb-18 15:30N 19°18' W 081°23'0 0.0
2020-Feb-18 14:30N 19°18' W 081°23'0 0.0
2020-Feb-18 13:30N 19°18' W 081°23'1 1.5
2020-Feb-18 13:00N 19°18' W 081°24'5 9.5
2020-Feb-18 12:30N 19°13' W 081°23'1313.4
2020-Feb-18 11:30N 19°11' W 081°09'  
Track history (hours):
 
Tides and Currents Weather Stations Pressure Air Temp Water Temp Dewpoint Dewpoint Depression Visibility Wind Speed Wind Dir Waves Ship Positions

Costa Luminosa

Last reported at 2020-Feb-25 09:03 UTC. Time now 2020-Feb-26 18:25 UTC.
Position N 26°18' W 079°23'.

Length 294 m; draft 8.1 m.

Type: Passenger vessel. MMSI: 247257900.

Date/timePositionNaut miles runAvg speedWind from/ knotsBaromVisibWave heightAir tempDewpointWater temp
2020-Feb-25 09:03N 26°18' W 079°23'910.0
2020-Feb-25 08:08N 26°26' W 079°28'12 9.7
2020-Feb-25 06:56N 26°23' W 079°41'29 9.9
2020-Feb-25 03:58N 26°05' W 080°07'0 0.0
2020-Feb-25 03:28N 26°05' W 080°07'0 0.0
2020-Feb-25 02:58N 26°05' W 080°07'0 0.0
2020-Feb-25 00:58N 26°05' W 080°07'0 0.0
2020-Feb-24 20:55N 26°05' W 080°07'0 0.0
2020-Feb-24 19:55N 26°05' W 080°07'0 0.0
2020-Feb-24 18:58N 26°05' W 080°07'0 0.0
2020-Feb-24 15:58N 26°05' W 080°07'0 0.0
2020-Feb-24 14:58N 26°05' W 080°07'0 0.0
2020-Feb-24 14:28N 26°05' W 080°07'0 0.0
2020-Feb-24 11:58N 26°05' W 080°07'0 0.0
2020-Feb-24 11:28N 26°05' W 080°07'14 4.9
2020-Feb-24 08:30N 25°58' W 079°53'51115.7
2020-Feb-22 23:57N 20°29' W 086°59'0 0.0
2020-Feb-22 23:27N 20°29' W 086°59'0 0.0
2020-Feb-22 22:24N 20°29' W 086°59'0 0.0
2020-Feb-22 21:30N 20°29' W 086°59'0 0.0
2020-Feb-22 19:24N 20°29' W 086°59'0 0.0
2020-Feb-22 17:30N 20°29' W 086°59'0 0.0
2020-Feb-22 17:00N 20°29' W 086°59'0 0.0
2020-Feb-22 15:00N 20°29' W 086°59'0 0.0
2020-Feb-22 14:27N 20°29' W 086°59'0 0.0
2020-Feb-22 13:57N 20°29' W 086°59'0 0.1
2020-Feb-22 12:01N 20°29' W 086°59'510.2
2020-Feb-22 11:31N 20°26' W 087°03'22318.4
2020-Feb-21 23:23N 16°43' W 086°43'27 9.1
2020-Feb-21 20:28N 16°20' W 086°30'0 0.0
2020-Feb-21 19:28N 16°20' W 086°30'0 0.0
2020-Feb-21 16:28N 16°20' W 086°30'0 0.0
2020-Feb-21 15:58N 16°20' W 086°30'0 0.0
2020-Feb-21 15:28N 16°20' W 086°30'46 5.4
2020-Feb-21 06:52N 16°47' W 087°08'  
2020-Feb-18 23:14N 19°15' W 081°31'313.2
2020-Feb-18 23:00N 19°16' W 081°28'5 1.8
2020-Feb-18 20:30N 19°18' W 081°23'0 0.0
2020-Feb-18 18:30N 19°18' W 081°23'0 0.0
2020-Feb-18 17:00N 19°18' W 081°24'0 0.1
2020-Feb-18 15:30N 19°18' W 081°23'0 0.0
2020-Feb-18 14:30N 19°18' W 081°23'0 0.0
2020-Feb-18 13:30N 19°18' W 081°23'1 1.5
2020-Feb-18 13:00N 19°18' W 081°24'5 9.5
2020-Feb-18 12:30N 19°13' W 081°23'1313.4
2020-Feb-18 11:30N 19°11' W 081°09'  

Dump ship's entire track history